Time;durP1;ratioP1;P1;durP2;ratioP2;P2;SDS_P1;SDS_P2;PMS_P1;PMS_P2;Temp;Humidity;BMP_temperature;BMP_pressure;BME280_temperature;BME280_humidity;BME280_pressure;Samples;Min_cycle;Max_cycle;Signal;HPM_P1;HPM_P2
2022/08/28 00:02:19;;;;;;;8.13;2.40;;;18.50;99.90;;;;;;4977864;28;20038;-60
2022/08/28 00:04:45;;;;;;;10.65;2.20;;;18.30;99.90;;;;;;4982080;28;20813;-60
2022/08/28 00:07:13;;;;;;;8.73;2.60;;;18.40;99.90;;;;;;4987899;28;20375;-60
2022/08/28 00:09:39;;;;;;;7.68;2.80;;;18.40;99.90;;;;;;4982954;28;20015;-60
2022/08/28 00:12:05;;;;;;;9.23;2.97;;;18.30;99.90;;;;;;4980654;28;20369;-60
2022/08/28 00:14:31;;;;;;;11.32;3.35;;;18.20;99.90;;;;;;4984823;28;20378;-58
2022/08/28 00:16:57;;;;;;;8.57;2.83;;;18.20;99.90;;;;;;4981927;28;20099;-60
2022/08/28 00:19:23;;;;;;;9.82;3.20;;;18.40;99.90;;;;;;4985460;28;20034;-59
2022/08/28 00:21:49;;;;;;;11.20;2.92;;;18.30;99.90;;;;;;4988873;28;20458;-60
2022/08/28 00:24:16;;;;;;;9.48;3.22;;;18.30;99.90;;;;;;4982913;28;20037;-60
2022/08/28 00:29:26;;;;;;;15.73;3.67;;;18.40;99.90;;;;;;4980395;28;20390;-60
2022/08/28 00:31:51;;;;;;;14.75;3.55;;;18.20;99.90;;;;;;4981288;28;20026;-60
2022/08/28 00:34:17;;;;;;;11.23;3.25;;;18.10;99.90;;;;;;4986572;28;20038;-59
2022/08/28 00:36:43;;;;;;;12.23;3.53;;;18.00;99.90;;;;;;4986815;28;20481;-60
2022/08/28 00:39:09;;;;;;;11.65;3.53;;;18.10;99.90;;;;;;4981150;28;20235;-59
2022/08/28 00:41:39;;;;;;;12.63;4.10;;;18.00;99.90;;;;;;4985724;28;20113;-60
2022/08/28 00:44:15;;;;;;;10.65;3.60;;;18.00;99.90;;;;;;4986441;28;20078;-60
2022/08/28 00:46:44;;;;;;;15.50;4.05;;;17.90;99.90;;;;;;4987421;28;20382;-60
2022/08/28 00:49:11;;;;;;;12.50;3.83;;;18.20;99.90;;;;;;4986309;28;20030;-60
2022/08/28 00:54:23;;;;;;;10.98;3.50;;;17.90;99.90;;;;;;4986690;28;20092;-60
2022/08/28 00:56:52;;;;;;;11.95;3.83;;;17.80;99.90;;;;;;4986523;28;20056;-60
2022/08/28 00:59:19;;;;;;;8.98;3.55;;;17.70;99.90;;;;;;4987390;28;20023;-60
2022/08/28 01:01:47;;;;;;;11.27;3.17;;;17.60;99.90;;;;;;4985857;28;20022;-60
2022/08/28 01:04:16;;;;;;;11.15;3.50;;;17.50;99.90;;;;;;4987321;28;20034;-60
2022/08/28 01:06:44;;;;;;;13.18;4.18;;;17.50;99.90;;;;;;4986403;28;20552;-59
2022/08/28 01:09:11;;;;;;;7.35;3.30;;;17.40;99.90;;;;;;4987338;28;20031;-60
2022/08/28 01:11:40;;;;;;;9.25;3.97;;;17.20;99.90;;;;;;4984255;28;20054;-60
2022/08/28 01:14:07;;;;;;;12.95;3.85;;;17.40;99.90;;;;;;4993243;28;20076;-59
2022/08/28 01:16:34;;;;;;;16.20;3.97;;;17.40;99.90;;;;;;4982968;28;20022;-60
2022/08/28 01:19:03;;;;;;;9.05;3.70;;;17.40;99.90;;;;;;4986496;28;20504;-60
2022/08/28 01:21:35;;;;;;;12.80;3.92;;;17.30;99.90;;;;;;4983752;28;20023;-59
2022/08/28 01:24:08;;;;;;;13.37;3.63;;;17.40;99.90;;;;;;4988436;28;20477;-60
2022/08/28 01:26:34;;;;;;;11.95;3.65;;;17.40;99.90;;;;;;4983113;28;20031;-59
2022/08/28 01:29:00;;;;;;;10.55;3.95;;;17.30;99.90;;;;;;4986771;28;20030;-60
2022/08/28 01:31:29;;;;;;;13.18;3.88;;;17.40;99.90;;;;;;4983500;28;20026;-60
2022/08/28 01:33:58;;;;;;;13.07;3.45;;;17.40;99.90;;;;;;4982916;28;20035;-60
2022/08/28 01:36:24;;;;;;;12.48;3.78;;;17.50;99.90;;;;;;4985484;28;20470;-60
2022/08/28 01:38:57;;;;;;;13.02;3.92;;;17.20;99.90;;;;;;4980505;28;20180;-59
2022/08/28 01:41:23;;;;;;;15.70;3.90;;;17.30;99.90;;;;;;4987815;28;20034;-60
2022/08/28 01:43:49;;;;;;;10.93;3.92;;;17.30;99.90;;;;;;4981532;28;20026;-59
2022/08/28 01:46:16;;;;;;;14.57;4.07;;;17.30;99.90;;;;;;4988865;28;20369;-60
2022/08/28 01:48:43;;;;;;;10.90;4.03;;;17.20;99.90;;;;;;4987888;28;20023;-59
2022/08/28 01:51:10;;;;;;;11.57;4.20;;;17.30;99.90;;;;;;4986036;28;20078;-59
2022/08/28 01:53:40;;;;;;;9.18;3.92;;;17.20;99.90;;;;;;4979035;28;20567;-60
2022/08/28 01:56:10;;;;;;;14.45;3.97;;;17.20;99.90;;;;;;4983171;28;20474;-59
2022/08/28 01:58:39;;;;;;;16.48;4.28;;;17.20;99.90;;;;;;4985692;28;20071;-59
2022/08/28 02:01:13;;;;;;;12.50;4.35;;;17.50;99.90;;;;;;5003597;28;20031;-60
2022/08/28 02:03:41;;;;;;;19.67;4.70;;;17.40;99.90;;;;;;4984928;28;20101;-58
2022/08/28 02:06:07;;;;;;;13.65;4.40;;;17.70;99.90;;;;;;4987541;28;20042;-58
2022/08/28 02:08:33;;;;;;;14.25;4.32;;;16.90;99.90;;;;;;4983485;28;20026;-60
2022/08/28 02:10:59;;;;;;;11.77;4.25;;;16.90;99.90;;;;;;4984699;28;20058;-59
2022/08/28 02:13:25;;;;;;;12.68;4.20;;;16.80;99.90;;;;;;4984580;28;20041;-60
2022/08/28 02:15:50;;;;;;;14.50;4.88;;;17.00;99.90;;;;;;4986030;28;20027;-59
2022/08/28 02:18:17;;;;;;;14.13;4.95;;;16.90;99.90;;;;;;4983704;28;20125;-60
2022/08/28 02:20:43;;;;;;;15.23;4.57;;;16.90;99.90;;;;;;4984268;28;20675;-59
2022/08/28 02:23:09;;;;;;;10.57;3.85;;;16.80;99.90;;;;;;4985816;28;20040;-59
2022/08/28 02:25:35;;;;;;;14.45;4.80;;;16.80;99.90;;;;;;4987407;28;20065;-60
2022/08/28 02:28:01;;;;;;;13.43;4.05;;;16.80;99.90;;;;;;4985812;28;20469;-59
2022/08/28 02:30:27;;;;;;;14.70;4.00;;;16.70;99.90;;;;;;4984224;28;20710;-59
2022/08/28 02:32:53;;;;;;;14.80;4.28;;;16.80;99.90;;;;;;4983179;28;20338;-59
2022/08/28 02:35:20;;;;;;;10.65;3.92;;;16.70;99.90;;;;;;4983059;28;20033;-59
2022/08/28 02:37:46;;;;;;;13.18;4.38;;;16.50;99.90;;;;;;4982631;28;20045;-59
2022/08/28 02:40:14;;;;;;;10.45;4.03;;;;;;;;;;4983157;28;20553;-58
2022/08/28 02:42:41;;;;;;;11.88;3.88;;;16.30;99.90;;;;;;4978118;28;20714;-60
2022/08/28 02:45:10;;;;;;;14.05;4.30;;;16.30;99.90;;;;;;4983306;28;20545;-60
2022/08/28 02:47:41;;;;;;;12.55;4.15;;;16.40;99.90;;;;;;4987393;28;20026;-59
2022/08/28 02:50:09;;;;;;;13.30;4.03;;;16.30;99.90;;;;;;4984553;28;20018;-59
2022/08/28 02:52:36;;;;;;;16.27;4.38;;;16.20;99.90;;;;;;4982098;28;20034;-59
2022/08/28 02:55:03;;;;;;;16.40;5.25;;;16.20;99.90;;;;;;4985931;28;20557;-59
2022/08/28 02:57:29;;;;;;;10.88;4.55;;;16.10;99.90;;;;;;4984766;28;20034;-59
2022/08/28 02:59:55;;;;;;;11.55;4.80;;;16.20;99.90;;;;;;4981567;28;20448;-60
2022/08/28 03:02:21;;;;;;;10.88;4.88;;;16.30;99.90;;;;;;4985935;28;20030;-59
2022/08/28 03:04:47;;;;;;;16.58;5.10;;;16.50;99.90;;;;;;4985266;28;20026;-60
2022/08/28 03:07:14;;;;;;;11.82;4.57;;;16.00;99.90;;;;;;4985849;28;20355;-59
2022/08/28 03:09:42;;;;;;;15.30;5.07;;;16.30;99.90;;;;;;4982789;28;20175;-60
2022/08/28 03:12:09;;;;;;;12.70;5.38;;;;;;;;;;4984482;28;20569;-59
2022/08/28 03:14:36;;;;;;;14.95;4.85;;;16.10;99.90;;;;;;4984886;28;20019;-59
2022/08/28 03:17:03;;;;;;;13.85;4.63;;;;;;;;;;4987213;28;20034;-60
2022/08/28 03:19:29;;;;;;;16.75;4.75;;;16.50;99.90;;;;;;4983797;28;20490;-60
2022/08/28 03:21:54;;;;;;;13.93;5.22;;;16.70;99.90;;;;;;4984889;28;20030;-59
2022/08/28 03:24:22;;;;;;;16.83;4.70;;;16.30;99.90;;;;;;4984123;28;20481;-59
2022/08/28 03:26:48;;;;;;;15.35;5.03;;;16.20;99.90;;;;;;4982618;28;20319;-59
2022/08/28 03:29:13;;;;;;;14.80;5.05;;;16.00;99.90;;;;;;4984025;28;20034;-60
2022/08/28 03:31:39;;;;;;;15.45;5.18;;;16.20;99.90;;;;;;4984985;28;20046;-60
2022/08/28 03:34:05;;;;;;;11.68;4.90;;;16.50;99.90;;;;;;4980487;28;20037;-60
2022/08/28 03:36:31;;;;;;;15.02;4.80;;;16.70;99.90;;;;;;4983808;28;20034;-59
2022/08/28 03:38:59;;;;;;;14.88;4.90;;;16.10;99.90;;;;;;4980410;28;20034;-59
2022/08/28 03:41:28;;;;;;;12.50;5.03;;;15.90;99.90;;;;;;4983987;28;20027;-60
2022/08/28 03:43:56;;;;;;;15.98;4.82;;;16.00;99.90;;;;;;4978069;28;20475;-59
2022/08/28 03:46:25;;;;;;;15.27;4.78;;;16.70;99.90;;;;;;4983104;28;20117;-59
2022/08/28 03:48:52;;;;;;;14.38;4.78;;;16.20;99.90;;;;;;4980930;28;20018;-58
2022/08/28 03:51:21;;;;;;;11.80;4.43;;;16.00;99.90;;;;;;4987492;28;20542;-59
2022/08/28 03:53:47;;;;;;;15.75;4.90;;;16.00;99.90;;;;;;4989441;28;20102;-60
2022/08/28 03:56:21;;;;;;;14.10;4.40;;;16.30;99.90;;;;;;4987059;28;20598;-60
2022/08/28 03:58:48;;;;;;;13.27;4.70;;;16.20;99.90;;;;;;4984524;28;20486;-60
2022/08/28 04:01:14;;;;;;;15.27;4.85;;;16.10;99.90;;;;;;4983336;28;20036;-59
2022/08/28 04:03:39;;;;;;;18.00;4.90;;;15.80;99.90;;;;;;4979784;28;20386;-59
2022/08/28 04:06:05;;;;;;;10.30;4.35;;;15.90;99.90;;;;;;4993267;28;20022;-59
2022/08/28 04:08:31;;;;;;;12.35;4.10;;;15.90;99.90;;;;;;4987926;28;20114;-60
2022/08/28 04:10:59;;;;;;;14.02;4.40;;;16.20;99.90;;;;;;4988245;28;20463;-59
2022/08/28 04:13:25;;;;;;;14.05;4.40;;;16.20;99.90;;;;;;4987177;28;20031;-59
2022/08/28 04:16:15;;;;;;;12.82;4.35;;;16.20;99.90;;;;;;4987651;28;20034;-59
2022/08/28 04:18:42;;;;;;;11.50;4.28;;;16.00;99.90;;;;;;4987012;28;20038;-59
2022/08/28 04:21:20;;;;;;;14.35;4.55;;;16.00;99.90;;;;;;4988659;28;20085;-60
2022/08/28 04:23:46;;;;;;;11.93;4.53;;;15.90;99.90;;;;;;4987109;28;20030;-59
2022/08/28 04:26:16;;;;;;;17.33;4.68;;;15.80;99.90;;;;;;4986841;28;20034;-59
2022/08/28 04:28:42;;;;;;;13.10;4.13;;;15.90;99.90;;;;;;4989202;28;20022;-59
2022/08/28 04:31:08;;;;;;;14.27;4.10;;;15.90;99.90;;;;;;4987302;28;20041;-59
2022/08/28 04:33:34;;;;;;;13.02;4.20;;;15.80;99.90;;;;;;4983658;28;20321;-59
2022/08/28 04:36:07;;;;;;;13.60;4.47;;;15.90;99.90;;;;;;4985371;28;20409;-59
2022/08/28 04:38:32;;;;;;;15.07;4.20;;;15.80;99.90;;;;;;4980374;28;20069;-60
2022/08/28 04:40:58;;;;;;;15.60;4.07;;;16.10;99.90;;;;;;4986568;28;20097;-60
2022/08/28 04:43:24;;;;;;;14.52;3.80;;;16.10;99.90;;;;;;4982851;28;20037;-59
2022/08/28 04:45:49;;;;;;;14.93;4.13;;;15.80;99.90;;;;;;4986848;28;20554;-58
2022/08/28 04:48:15;;;;;;;18.40;4.13;;;15.80;99.90;;;;;;4984959;28;20552;-59
2022/08/28 04:50:46;;;;;;;14.60;4.32;;;15.90;99.90;;;;;;4983527;28;20073;-59
2022/08/28 04:53:14;;;;;;;14.93;4.40;;;15.80;99.90;;;;;;4985957;28;20019;-57
2022/08/28 04:55:45;;;;;;;14.77;4.28;;;15.70;99.90;;;;;;4985480;28;20046;-57
2022/08/28 04:58:11;;;;;;;14.50;4.28;;;15.80;99.90;;;;;;4986538;28;20042;-59
2022/08/28 05:00:38;;;;;;;13.07;4.05;;;15.90;99.90;;;;;;4985424;28;20041;-59
2022/08/28 05:03:04;;;;;;;11.32;4.45;;;15.90;99.90;;;;;;4991221;28;20105;-58
2022/08/28 05:05:30;;;;;;;14.05;4.10;;;15.90;99.90;;;;;;4986239;28;20160;-60
2022/08/28 05:07:55;;;;;;;18.73;4.57;;;16.00;99.90;;;;;;4986352;28;20026;-59
2022/08/28 05:10:21;;;;;;;14.70;4.03;;;15.90;99.90;;;;;;4985636;28;20417;-59
2022/08/28 05:12:47;;;;;;;12.15;3.95;;;16.00;99.90;;;;;;4984392;28;20087;-59
2022/08/28 05:15:12;;;;;;;11.63;4.20;;;16.00;99.90;;;;;;4986732;28;20760;-59
2022/08/28 05:17:38;;;;;;;10.80;3.63;;;16.00;99.90;;;;;;4987316;28;20068;-59
2022/08/28 05:20:05;;;;;;;14.18;4.10;;;15.80;99.90;;;;;;4986940;28;20049;-60
2022/08/28 05:22:31;;;;;;;11.85;3.75;;;15.90;99.90;;;;;;4986116;28;20062;-59
2022/08/28 05:24:59;;;;;;;12.88;3.60;;;16.20;99.90;;;;;;4986525;28;20019;-59
2022/08/28 05:27:25;;;;;;;10.32;3.67;;;16.30;99.90;;;;;;4985416;28;20084;-59
2022/08/28 05:29:51;;;;;;;13.25;4.13;;;16.10;99.90;;;;;;4985016;28;20473;-59
2022/08/28 05:32:17;;;;;;;18.17;4.22;;;15.80;99.90;;;;;;4986389;28;20037;-59
2022/08/28 05:34:42;;;;;;;11.02;3.97;;;16.10;99.90;;;;;;4986471;28;20042;-60
2022/08/28 05:37:08;;;;;;;18.40;4.57;;;16.20;99.90;;;;;;4987758;28;20034;-59
2022/08/28 05:39:34;;;;;;;11.65;4.10;;;15.70;99.90;;;;;;4977556;28;20129;-60
2022/08/28 05:41:59;;;;;;;16.98;4.50;;;15.70;99.90;;;;;;4979758;28;20080;-59
2022/08/28 05:44:25;;;;;;;16.30;4.60;;;16.00;99.90;;;;;;4983083;28;20034;-59
2022/08/28 05:46:51;;;;;;;12.30;4.40;;;15.80;99.90;;;;;;4986561;28;20092;-60
2022/08/28 05:49:18;;;;;;;16.52;4.38;;;16.00;99.90;;;;;;4985166;28;20026;-60
2022/08/28 05:51:44;;;;;;;15.15;4.60;;;16.10;99.90;;;;;;4986195;28;20454;-58
2022/08/28 05:54:10;;;;;;;14.27;4.50;;;16.30;99.90;;;;;;4985213;28;20102;-59
2022/08/28 05:56:38;;;;;;;11.48;3.90;;;15.90;99.90;;;;;;4981475;28;20049;-60
2022/08/28 05:59:05;;;;;;;13.55;4.55;;;15.90;99.90;;;;;;4986793;28;20023;-60
2022/08/28 06:01:34;;;;;;;12.30;4.40;;;15.90;99.90;;;;;;4984834;28;20039;-59
2022/08/28 06:04:03;;;;;;;10.82;4.07;;;16.10;99.90;;;;;;4985307;28;20469;-60
2022/08/28 06:06:33;;;;;;;11.68;4.18;;;16.20;99.90;;;;;;4983931;28;20425;-58
2022/08/28 06:09:05;;;;;;;12.27;4.32;;;16.30;99.90;;;;;;4987423;28;20108;-60
2022/08/28 06:11:30;;;;;;;10.60;4.00;;;16.30;99.90;;;;;;4983295;28;20073;-58
2022/08/28 06:13:58;;;;;;;12.80;4.43;;;16.60;99.90;;;;;;4985481;28;20062;-60
2022/08/28 06:16:23;;;;;;;11.07;4.20;;;16.40;99.90;;;;;;4981814;28;20023;-59
2022/08/28 06:18:50;;;;;;;9.60;3.78;;;16.30;99.90;;;;;;4987732;28;20041;-59
2022/08/28 06:21:15;;;;;;;13.15;3.85;;;16.40;99.90;;;;;;4988700;28;20034;-60
2022/08/28 06:23:41;;;;;;;11.43;3.70;;;16.60;99.90;;;;;;4984898;28;20030;-59
2022/08/28 06:26:07;;;;;;;15.57;4.32;;;16.40;99.90;;;;;;4982766;28;20113;-59
2022/08/28 06:28:32;;;;;;;11.05;3.67;;;16.60;99.90;;;;;;4985895;28;20026;-59
2022/08/28 06:31:01;;;;;;;12.35;3.28;;;16.60;99.90;;;;;;4984949;28;20125;-60
2022/08/28 06:33:27;;;;;;;10.77;3.40;;;16.70;99.90;;;;;;4983127;28;20037;-57
2022/08/28 06:35:54;;;;;;;17.63;4.60;;;16.70;99.90;;;;;;4982064;28;20466;-60
2022/08/28 06:38:22;;;;;;;15.98;3.63;;;16.70;99.90;;;;;;4973199;28;20557;-60
2022/08/28 06:40:52;;;;;;;10.85;3.60;;;16.80;99.90;;;;;;4979876;28;20514;-60
2022/08/28 06:43:20;;;;;;;12.25;3.33;;;17.00;99.90;;;;;;4982428;28;20030;-57
2022/08/28 06:45:47;;;;;;;11.10;3.22;;;16.90;99.90;;;;;;4983981;28;20041;-60
2022/08/28 06:48:15;;;;;;;12.05;2.92;;;17.00;99.90;;;;;;4984049;28;20042;-59
2022/08/28 06:50:44;;;;;;;13.57;3.40;;;17.00;99.90;;;;;;4982653;28;20026;-59
2022/08/28 06:53:11;;;;;;;12.32;3.45;;;17.10;99.90;;;;;;4989689;28;20117;-59
2022/08/28 06:55:37;;;;;;;12.77;2.88;;;17.10;99.90;;;;;;4982724;28;20670;-59
2022/08/28 06:58:07;;;;;;;9.05;3.10;;;17.00;99.90;;;;;;4983506;28;20031;-59
2022/08/28 07:00:34;;;;;;;9.73;2.65;;;17.10;99.90;;;;;;4983019;28;20151;-59
2022/08/28 07:03:01;;;;;;;15.00;3.20;;;17.20;99.90;;;;;;4984316;28;20502;-59
2022/08/28 07:05:27;;;;;;;16.13;3.50;;;17.40;99.90;;;;;;4987199;28;20035;-60
2022/08/28 07:07:54;;;;;;;9.90;3.10;;;17.20;99.90;;;;;;4986973;28;20039;-60
2022/08/28 07:10:19;;;;;;;9.45;3.15;;;17.40;99.90;;;;;;4987814;28;20037;-60
2022/08/28 07:12:47;;;;;;;9.13;2.80;;;17.20;99.90;;;;;;4998151;28;20018;-60
2022/08/28 07:15:13;;;;;;;11.35;2.75;;;17.20;99.90;;;;;;4978664;28;20502;-60
2022/08/28 07:17:38;;;;;;;10.57;2.70;;;17.20;99.90;;;;;;4985242;28;20055;-60
2022/08/28 07:20:05;;;;;;;10.80;3.00;;;17.30;99.90;;;;;;4999339;28;20070;-60
2022/08/28 07:22:32;;;;;;;9.30;3.22;;;17.30;99.90;;;;;;4988583;28;20030;-59
2022/08/28 07:24:57;;;;;;;8.32;2.63;;;17.40;99.90;;;;;;4981366;28;20030;-60
2022/08/28 07:27:24;;;;;;;10.85;2.80;;;17.30;99.90;;;;;;4987472;28;20038;-60
2022/08/28 07:29:51;;;;;;;9.55;2.67;;;17.30;99.90;;;;;;4984256;28;20368;-59
2022/08/28 07:32:20;;;;;;;11.63;2.67;;;17.30;99.90;;;;;;4985120;28;20030;-59
2022/08/28 07:34:46;;;;;;;9.57;2.50;;;17.30;99.90;;;;;;4987413;28;20023;-60
2022/08/28 07:37:12;;;;;;;9.07;2.67;;;17.40;99.90;;;;;;4983675;28;20121;-60
2022/08/28 07:39:38;;;;;;;8.90;2.60;;;17.40;99.90;;;;;;4979191;28;20664;-59
2022/08/28 07:42:04;;;;;;;10.60;3.22;;;17.30;99.90;;;;;;4980725;28;20138;-60
2022/08/28 07:44:53;;;;;;;12.63;2.97;;;17.30;99.90;;;;;;4986475;28;20035;-59
2022/08/28 07:47:19;;;;;;;15.32;3.25;;;17.30;99.90;;;;;;4988482;28;20125;-60
2022/08/28 07:49:44;;;;;;;13.48;3.25;;;17.40;99.90;;;;;;4984225;28;20101;-60
2022/08/28 07:52:11;;;;;;;13.00;2.88;;;17.60;99.90;;;;;;4983351;28;20621;-59
2022/08/28 07:54:39;;;;;;;9.50;3.17;;;17.50;99.90;;;;;;4987960;28;20581;-60
2022/08/28 07:57:08;;;;;;;9.75;2.70;;;17.50;99.90;;;;;;4982775;28;20542;-60
2022/08/28 07:59:35;;;;;;;8.80;2.40;;;17.40;99.90;;;;;;4988006;28;21634;-60
2022/08/28 08:02:01;;;;;;;7.90;2.47;;;17.60;99.90;;;;;;4986045;28;20042;-59
2022/08/28 08:04:27;;;;;;;10.50;2.85;;;17.50;99.90;;;;;;4988303;28;20642;-59
2022/08/28 08:06:52;;;;;;;8.60;2.80;;;17.60;99.90;;;;;;4987173;28;20034;-58
2022/08/28 08:09:19;;;;;;;7.90;2.72;;;17.60;99.90;;;;;;4990023;28;20164;-60
2022/08/28 08:11:46;;;;;;;10.77;3.13;;;17.50;99.90;;;;;;4984485;28;20039;-60
2022/08/28 08:14:13;;;;;;;10.30;3.22;;;17.50;99.90;;;;;;4987657;28;20037;-59
2022/08/28 08:16:41;;;;;;;11.68;3.38;;;17.80;99.90;;;;;;4985156;28;20066;-59
2022/08/28 08:19:09;;;;;;;9.35;3.65;;;17.80;99.90;;;;;;4987204;28;20021;-59
2022/08/28 08:21:35;;;;;;;11.63;3.13;;;17.70;99.90;;;;;;4988210;28;20038;-60
2022/08/28 08:24:01;;;;;;;8.43;2.95;;;17.70;99.90;;;;;;4984753;28;20034;-60
2022/08/28 08:26:27;;;;;;;11.35;2.47;;;17.70;99.90;;;;;;4988771;28;20102;-60
2022/08/28 08:28:54;;;;;;;12.63;2.55;;;17.90;99.90;;;;;;4987651;28;20026;-60
2022/08/28 08:31:27;;;;;;;10.93;2.83;;;18.20;99.90;;;;;;4983253;28;20521;-60
2022/08/28 08:33:57;;;;;;;11.82;3.53;;;18.20;99.90;;;;;;4981010;28;20455;-60
2022/08/28 08:36:25;;;;;;;12.10;3.00;;;18.30;99.90;;;;;;4982180;28;20034;-61
2022/08/28 08:38:52;;;;;;;10.25;2.92;;;18.50;99.90;;;;;;4978876;28;20030;-62
2022/08/28 08:41:24;;;;;;;9.77;3.05;;;18.60;99.90;;;;;;4986655;28;20031;-61
2022/08/28 08:44:01;;;;;;;11.65;3.28;;;18.80;99.90;;;;;;4982388;28;20022;-61
2022/08/28 08:46:59;;;;;;;9.13;3.10;;;18.90;99.90;;;;;;4982207;28;20019;-61
2022/08/28 08:49:30;;;;;;;9.55;3.40;;;19.00;99.90;;;;;;4986540;28;20030;-61
2022/08/28 08:52:10;;;;;;;10.68;3.60;;;18.80;99.90;;;;;;4988979;28;20193;-61
2022/08/28 08:54:43;;;;;;;6.70;2.85;;;18.50;99.90;;;;;;4984251;28;20577;-61
2022/08/28 08:57:12;;;;;;;14.10;3.33;;;18.60;99.90;;;;;;4982760;28;20026;-62
2022/08/28 08:59:39;;;;;;;11.35;3.00;;;18.70;99.90;;;;;;4986628;28;20106;-61
2022/08/28 09:02:13;;;;;;;9.45;2.92;;;18.90;99.90;;;;;;4987424;28;20098;-61
2022/08/28 09:04:51;;;;;;;8.90;2.65;;;18.90;99.90;;;;;;4986042;28;20478;-61
2022/08/28 09:07:25;;;;;;;9.68;3.03;;;18.90;99.90;;;;;;4985556;28;20026;-61
2022/08/28 09:09:54;;;;;;;9.35;2.72;;;19.00;99.90;;;;;;4981677;28;20531;-61
2022/08/28 09:12:23;;;;;;;9.35;2.80;;;19.20;99.90;;;;;;4986950;28;20458;-61
2022/08/28 09:15:14;;;;;;;12.32;3.20;;;19.00;99.90;;;;;;4991713;28;20475;-61
2022/08/28 09:17:51;;;;;;;7.68;2.63;;;19.30;99.90;;;;;;4987845;28;20026;-61
2022/08/28 09:20:20;;;;;;;9.32;2.28;;;19.20;99.90;;;;;;4984223;28;20053;-61
2022/08/28 09:22:47;;;;;;;11.43;2.78;;;19.20;99.90;;;;;;4988000;28;20485;-62
2022/08/28 09:25:46;;;;;;;10.07;2.65;;;19.30;99.90;;;;;;4987057;28;20034;-61
2022/08/28 09:28:27;;;;;;;6.40;2.55;;;19.30;99.90;;;;;;4987999;28;20050;-62
2022/08/28 09:31:08;;;;;;;8.68;2.50;;;19.50;99.90;;;;;;4984077;28;20114;-62
2022/08/28 09:33:39;;;;;;;8.63;2.60;;;19.50;99.90;;;;;;4982825;28;20066;-62
2022/08/28 09:36:28;;;;;;;8.57;2.50;;;19.60;99.90;;;;;;4986893;28;20054;-62
2022/08/28 09:39:08;;;;;;;10.75;2.20;;;19.50;99.90;;;;;;4982495;28;20030;-61
2022/08/28 09:44:59;;;;;;;10.55;2.42;;;19.90;99.90;;;;;;4986062;28;20117;-62
2022/08/28 09:47:35;;;;;;;8.18;2.45;;;20.10;99.90;;;;;;4984799;28;20805;-59
2022/08/28 09:50:25;;;;;;;8.00;2.40;;;20.10;99.90;;;;;;4982458;28;20034;-62
2022/08/28 09:52:54;;;;;;;8.68;2.97;;;20.40;99.90;;;;;;4988643;28;20380;-61
2022/08/28 09:55:41;;;;;;;12.35;3.05;;;20.60;99.90;;;;;;4987331;28;20390;-62
2022/08/28 09:58:08;;;;;;;8.00;2.80;;;20.30;99.90;;;;;;4986329;28;20029;-62
2022/08/28 10:00:38;;;;;;;10.77;2.70;;;20.40;99.90;;;;;;4985351;28;20062;-62
2022/08/28 10:03:16;;;;;;;10.50;3.08;;;20.30;99.90;;;;;;4979797;28;20034;-62
2022/08/28 10:06:21;;;;;;;8.40;2.67;;;20.40;99.90;;;;;;4985287;28;20022;-62
2022/08/28 10:09:00;;;;;;;8.38;2.20;;;20.20;99.90;;;;;;4981978;28;20027;-62
2022/08/28 10:12:04;;;;;;;13.10;3.17;;;20.20;99.90;;;;;;4986662;28;20501;-62
2022/08/28 10:14:46;;;;;;;13.90;2.75;;;20.40;99.90;;;;;;4995104;28;20031;-62
2022/08/28 10:17:47;;;;;;;10.48;2.72;;;20.30;99.90;;;;;;4991396;28;20065;-61
2022/08/28 10:20:36;;;;;;;22.45;13.43;;;20.10;99.90;;;;;;4984935;28;20482;-63
2022/08/28 10:23:11;;;;;;;6.97;2.78;;;20.00;99.90;;;;;;4980881;28;20693;-62
2022/08/28 10:25:56;;;;;;;8.52;1.98;;;20.30;99.90;;;;;;4975348;28;20446;-62
2022/08/28 10:28:49;;;;;;;9.02;2.47;;;20.40;99.90;;;;;;5000313;28;20026;-63
2022/08/28 10:31:26;;;;;;;10.65;2.63;;;20.50;99.90;;;;;;4988337;28;20030;-62
2022/08/28 10:34:03;;;;;;;11.43;2.70;;;20.40;99.90;;;;;;4984075;28;20402;-63
2022/08/28 10:36:31;;;;;;;8.57;2.35;;;20.60;99.90;;;;;;4988338;28;20447;-61
2022/08/28 10:39:06;;;;;;;6.45;2.13;;;20.50;99.90;;;;;;4980310;28;20556;-62
2022/08/28 10:41:44;;;;;;;6.78;2.33;;;20.50;99.90;;;;;;4981868;28;20490;-60
2022/08/28 10:44:16;;;;;;;8.63;2.95;;;20.40;99.90;;;;;;4983638;28;20036;-60
2022/08/28 10:46:46;;;;;;;5.57;2.13;;;20.40;99.90;;;;;;4983794;28;20204;-64
2022/08/28 10:49:27;;;;;;;8.60;2.30;;;20.70;99.90;;;;;;4985149;28;20031;-63
2022/08/28 10:52:16;;;;;;;6.30;2.25;;;20.50;99.90;;;;;;4981676;28;20026;-63
2022/08/28 10:54:48;;;;;;;11.05;2.50;;;20.60;99.90;;;;;;4979539;28;20041;-63
2022/08/28 10:57:14;;;;;;;5.10;1.83;;;20.90;99.90;;;;;;4982938;28;20034;-60
2022/08/28 10:59:41;;;;;;;6.40;2.08;;;21.00;99.90;;;;;;4981502;28;20508;-59
2022/08/28 11:02:10;;;;;;;6.90;2.10;;;21.00;99.90;;;;;;4985373;28;20026;-59
2022/08/28 11:04:35;;;;;;;6.00;1.80;;;20.90;99.90;;;;;;4985201;28;20212;-64
2022/08/28 11:07:06;;;;;;;5.53;1.92;;;20.60;99.90;;;;;;4985426;28;20092;-63
2022/08/28 11:09:46;;;;;;;17.50;4.55;;;20.60;99.90;;;;;;4973443;28;20049;-62
2022/08/28 11:12:18;;;;;;;13.27;5.30;;;20.90;99.90;;;;;;4977977;28;20034;-64
2022/08/28 11:14:50;;;;;;;4.03;1.85;;;21.00;99.90;;;;;;4976103;28;20037;-64
2022/08/28 11:17:26;;;;;;;8.07;2.00;;;21.00;99.90;;;;;;4977474;28;20081;-64
2022/08/28 11:20:07;;;;;;;6.70;2.25;;;21.00;99.90;;;;;;4979452;28;20034;-61
2022/08/28 11:22:55;;;;;;;4.88;1.83;;;21.20;99.90;;;;;;4981425;28;20609;-63
2022/08/28 11:25:31;;;;;;;6.25;1.90;;;21.10;99.90;;;;;;4981772;28;20030;-63
2022/08/28 11:28:35;;;;;;;7.80;1.98;;;20.90;99.90;;;;;;4978868;28;20038;-63
2022/08/28 11:31:03;;;;;;;7.38;2.13;;;20.90;99.90;;;;;;4996606;28;20149;-63
2022/08/28 11:33:46;;;;;;;8.82;2.33;;;20.90;99.90;;;;;;4982189;28;20053;-64
2022/08/28 11:36:32;;;;;;;3.92;1.58;;;21.10;99.90;;;;;;4984127;28;20493;-64
2022/08/28 11:39:17;;;;;;;7.35;2.33;;;21.20;99.90;;;;;;4976330;28;20502;-63
2022/08/28 11:42:27;;;;;;;6.13;1.90;;;21.10;99.90;;;;;;4983333;28;20030;-66
2022/08/28 11:44:52;;;;;;;5.70;1.90;;;21.20;99.90;;;;;;4976837;28;20031;-65
2022/08/28 11:47:46;;;;;;;6.63;1.77;;;21.30;99.90;;;;;;4983254;28;20022;-65
2022/08/28 11:50:17;;;;;;;5.85;2.10;;;21.40;99.90;;;;;;4983529;28;20490;-62
2022/08/28 11:53:07;;;;;;;7.63;2.08;;;21.20;99.90;;;;;;4988823;28;20027;-65
2022/08/28 11:55:45;;;;;;;6.22;1.88;;;21.30;99.90;;;;;;4979098;28;20119;-65
2022/08/28 11:58:41;;;;;;;5.78;2.17;;;21.20;99.90;;;;;;4982966;28;20022;-65
2022/08/28 12:01:10;;;;;;;9.02;1.77;;;21.50;99.90;;;;;;4985990;28;20109;-66
2022/08/28 12:03:54;;;;;;;6.93;2.25;;;21.60;99.90;;;;;;4979552;28;20036;-65
2022/08/28 12:06:50;;;;;;;6.43;1.90;;;21.40;99.90;;;;;;4975972;28;20525;-63
2022/08/28 12:09:25;;;;;;;4.65;1.83;;;21.30;99.90;;;;;;4981283;28;20096;-63
2022/08/28 12:12:05;;;;;;;6.90;1.85;;;21.70;99.90;;;;;;4984789;28;20042;-63
2022/08/28 12:14:39;;;;;;;7.00;2.00;;;21.70;99.90;;;;;;4984402;28;20056;-62
2022/08/28 12:17:14;;;;;;;8.98;2.17;;;21.70;99.90;;;;;;4986465;28;20038;-62
2022/08/28 12:19:50;;;;;;;7.47;1.70;;;21.90;99.90;;;;;;4987733;28;20647;-63
2022/08/28 12:22:23;;;;;;;7.05;1.70;;;21.70;99.90;;;;;;4987397;28;20014;-62
2022/08/28 12:24:55;;;;;;;5.40;1.80;;;21.80;99.90;;;;;;4982733;28;20026;-62
2022/08/28 12:27:21;;;;;;;7.23;2.00;;;21.80;99.90;;;;;;4989600;28;20026;-63
2022/08/28 12:29:54;;;;;;;7.53;2.10;;;21.80;99.90;;;;;;4988968;28;20398;-61
2022/08/28 12:32:25;;;;;;;6.97;1.98;;;21.70;99.90;;;;;;4989610;28;20046;-63
2022/08/28 12:34:56;;;;;;;10.55;3.95;;;21.70;99.90;;;;;;4986691;28;20034;-62
2022/08/28 12:37:22;;;;;;;7.60;2.00;;;21.60;99.90;;;;;;4983200;28;20041;-61
2022/08/28 12:39:48;;;;;;;5.13;1.70;;;21.70;99.90;;;;;;4983091;28;20652;-61
2022/08/28 12:42:17;;;;;;;6.30;1.70;;;21.70;99.90;;;;;;4992750;28;20045;-61
2022/08/28 12:44:43;;;;;;;9.05;1.65;;;21.80;99.90;;;;;;4985526;28;20728;-61
2022/08/28 12:47:14;;;;;;;7.15;1.80;;;21.80;99.90;;;;;;4986799;28;20602;-61
2022/08/28 12:49:39;;;;;;;7.72;1.60;;;21.90;99.90;;;;;;4986488;28;20133;-61
2022/08/28 12:52:15;;;;;;;8.55;1.77;;;22.00;99.90;;;;;;4986322;28;20164;-61
2022/08/28 12:54:43;;;;;;;6.32;1.52;;;21.80;99.90;;;;;;4986022;28;20042;-61
2022/08/28 12:57:12;;;;;;;5.72;1.77;;;21.80;99.90;;;;;;4983429;28;20081;-61
2022/08/28 12:59:43;;;;;;;5.72;1.75;;;22.00;99.90;;;;;;4983807;28;20034;-61
2022/08/28 13:02:23;;;;;;;6.30;1.67;;;22.10;99.90;;;;;;4988951;28;20417;-60
2022/08/28 13:05:02;;;;;;;5.43;1.45;;;22.10;99.90;;;;;;4987285;28;20231;-60
2022/08/28 13:07:29;;;;;;;6.38;1.48;;;22.10;99.90;;;;;;4986571;28;20058;-60